ADDS METAR Data INFO
IDs: Format: Raw Decoded Include TAF

Data at: 0251 UTC 21 Oct 2017

KBLU 210205Z AUTO 00000KT 10SM BKN004 OVC024 02/02 A3011 RMK AO2 T00220017 TSNO
KBLU 210152Z AUTO 30003KT 10SM FEW005 OVC025 02/02 A3011 RMK AO2 SLP198 T00220017 TSNO
KBLU 210141Z AUTO 00000KT 10SM FEW005 SCT008 OVC025 02/02 A3010 RMK AO2 T00220017 TSNO
KBLU 210124Z AUTO 00000KT 10SM BKN007 BKN014 OVC022 02/02 A3010 RMK AO2 CIG 003V010 T00220017 TSNO
KBLU 210059Z AUTO VRB03KT 10SM OVC003 02/02 A3009 RMK AO2 T00220017 TSNO
KBLU 210052Z AUTO 35003KT 5SM BR OVC005 02/02 A3009 RMK AO2 UPE2358 SLP192 P0000 T00220017 TSNO
KBLU 210015Z AUTO 00000KT 10SM BKN008 BKN012 OVC025 02/02 A3009 RMK AO2 UPE2358 CIG 007V011 P0000 T00220022 TSNO
KBLU 202352Z AUTO 19004KT 9SM UP FEW005 BKN020 OVC025 02/02 A3009 RMK AO2 RAB01E02B39E52UPB02E18B37E39B52 SLP192 P0000 60000 T00170017 10056 20017 51008 TSNO
KBLU 202340Z AUTO 22004KT 6SM -RA BR SCT004 BKN019 OVC030 02/01 A3009 RMK AO2 RAB01E02B39UPB02E18B37E39 P0000 T00170011 TSNO
KBLU 202303Z AUTO 28006KT 9SM UP BKN025 BKN033 OVC040 03/00 A3009 RMK AO2 RAB01E02UPB02 P0000 T00280000 TSNO
KBLU 202252Z AUTO VRB05KT 10SM FEW014 BKN033 OVC040 03/01 A3008 RMK AO2 SLP180 T00330011 TSNO
KBLU 202249Z AUTO 28005KT 10SM FEW014 BKN033 OVC040 03/02 A3008 RMK AO2 TSNO
KBLU 202216Z AUTO 29006KT 10SM SCT010 BKN020 OVC055 04/02 A3007 RMK AO2 T00440017 TSNO
KBLU 202205Z AUTO VRB06KT 10SM FEW008 SCT021 BKN055 04/02 A3006 RMK AO2 T00390017 TSNO
KBLU 202152Z AUTO VRB06KT 10SM FEW014 FEW021 SCT055 04/02 A3006 RMK AO2 SLP172 T00440022 TSNO
KBLU 202052Z AUTO 10SM SCT017 BKN038 OVC047 06/01 A3006 RMK AO2 SLP162 T00560011 52002 TSNO
KBLU 201952Z AUTO 18007KT 150V230 10SM FEW019 SCT046 SCT055 05/01 A3006 RMK AO2 SLP157 T00500006 TSNO
KBLU 201905Z AUTO 32004KT 10SM SCT020 BKN029 BKN034 04/00 A3006 RMK AO2 T00440000 TSNO
KBLU 201852Z AUTO VRB03KT 10SM FEW016 BKN033 04/M01 A3006 RMK AO2 SLP163 T00391011 TSNO
KBLU 201833Z AUTO VRB04KT 10SM SCT022 03/00 A3006 RMK AO2 T00330000 TSNO
KBLU 201752Z AUTO 00000KT 10SM BKN024 03/M01 A3006 RMK AO2 SLP160 60003 T00331011 10033 20000 51019 TSNO
KBLU 201652Z AUTO 22005KT 10SM BKN020 01/00 A3005 RMK AO2 SLP162 T00110000 TSNO
KBLU 201615Z AUTO 18004KT 10SM FEW003 01/01 A3003 RMK AO2 T00110011 TSNO
KBLU 201552Z AUTO 00000KT 10SM CLR 01/M01 A3002 RMK AO2 SLP152 T00111006 TSNO
KBLU 201516Z AUTO 00000KT 10SM SCT002 01/01 A3000 RMK AO2 T00060006 TSNO
KBLU 201452Z AUTO 05003KT 3SM BR OVC003 00/00 A2999 RMK AO2 UPB27E37 SLP143 P0000 60003 T00000000 51014 TSNO
KBLU 201432Z AUTO 00000KT 3SM UP BR OVC003 01/01 A2999 RMK AO2 UPB27 P0000 T00060006 TSNO
KBLU 201416Z AUTO 23004KT 1 3/4SM BR BKN003 OVC017 01/01 A2999 RMK AO2 VIS 1/2V5 T00060006 TSNO
KBLU 201409Z AUTO VRB03KT 1/2SM FG VV003 01/01 A2999 RMK AO2 T00060006 TSNO
KBLU 201401Z AUTO 27003KT 1 1/4SM BR OVC004 01/01 A2999 RMK AO2 T00060006 TSNO
KBLU 201352Z AUTO 22004KT 2 1/2SM BR OVC004 01/01 A2999 RMK AO2 VIS 1 1/4V5 UPB19E21B46E49RAB30E37SNB21E30B37E46 SLP140 P0002 T00060006 TSNO
KBLU 201345Z AUTO 19003KT 1 3/4SM -SN BR OVC004 01/01 A2998 RMK AO2 VIS 3/4V5 UPB19E21RAB30E37SNB21E30B37 P0002 T00060006 TSNO
KBLU 201338Z AUTO 00000KT 6SM -SN BR OVC005 01/00 A2998 RMK AO2 UPB19E21RAB30E37SNB21E30B37 P0001 T00060000 TSNO
KBLU 201331Z AUTO 00000KT 2 1/2SM RA BR OVC005 01/00 A2998 RMK AO2 UPB19E21RAB30SNB21E30 P0001 T00060000 TSNO
KBLU 201325Z AUTO 00000KT 3SM -SN BR OVC004 01/01 A2997 RMK AO2 UPB19E21SNB21 P0000 T00060006 TSNO
KBLU 201315Z AUTO 34006KT 2SM BR BKN004 OVC014 01/01 A2997 RMK AO2 VIS 1 1/2V5 T00110011 TSNO
KBLU 201300Z AUTO 21004KT 1 1/4SM BR BKN003 BKN012 OVC019 01/01 A2997 RMK AO2 T00110011 TSNO
KBLU 201254Z AUTO 21004KT 2 1/2SM BR BKN003 OVC019 01/01 A2997 RMK AO2 T00110011 TSNO
KBLU 201252Z AUTO VRB04KT 1SM BR BKN003 OVC019 01/01 A2996 RMK AO2 UPE1158B21E26RAB1158E21 SLP126 P0001 T00110011 TSNO
KBLU 201159Z AUTO VRB04KT 3/4SM -RA BR BKN003 OVC010 02/02 A2995 RMK AO2 UPE58RAB58 P0000 T00170017 TSNO
KBLU 201152Z AUTO 25007KT 1SM UP BR BKN003 OVC010 02/02 A2994 RMK AO2 RAB18E27UPB52 SLP113 P0000 60068 70086 T00170017 10061 20011 51032 TSNO
KBLU 201125Z AUTO 22008KT 1 3/4SM -RA BR BKN005 BKN008 OVC013 02/02 A2993 RMK AO2 RAB18 P0000 T00170017 TSNO
KBLU 201112Z AUTO VRB05KT 9SM SCT006 BKN009 OVC015 02/02 A2991 RMK AO2 T00170017 TSNO
KBLU 201056Z AUTO VRB05KT 10SM FEW006 BKN019 OVC080 02/02 A2991 RMK AO2 T00170017 TSNO
KBLU 201052Z AUTO 22006KT 10SM FEW013 SCT019 OVC080 02/01 A2990 RMK AO2 RAE07UPB07E21 SLP099 P0001 T00170011 TSNO
KBLU 201024Z AUTO 22007KT 190V250 10SM FEW004 BKN039 OVC070 01/01 A2988 RMK AO2 RAE07UPB07E21 P0001 T00110006 TSNO
KBLU 201010Z AUTO 26009KT 230V300 4SM UP BR FEW004 SCT010 OVC016 02/02 A2988 RMK AO2 RAE07UPB07 P0001 T00170017 TSNO
KBLU 201006Z AUTO VRB03KT 2SM -RA BR SCT004 OVC011 02/02 A2988 RMK AO2 VIS 3/4V4 P0001 T00170017 TSNO
KBLU 201000Z AUTO 00000KT 1SM -RA BR VV005 02/02 A2989 RMK AO2 P0001 T00170017 TSNO
KBLU 200957Z AUTO VRB04KT 3/4SM -RA BR VV004 02/02 A2989 RMK AO2 P0000 T00170017 TSNO
KBLU 200952Z AUTO 27005KT 1 3/4SM -RA BR OVC005 02/02 A2989 RMK AO2 PK WND 26031/0855 SLP090 P0017 T00170017 TSNO
KBLU 200945Z AUTO 27006G15KT 1 1/2SM -RA BR OVC005 02/02 A2988 RMK AO2 PK WND 26031/0855 P0016 T00170017 TSNO
KBLU 200939Z AUTO 27009G16KT 1SM RA BR VV004 02/02 A2988 RMK AO2 PK WND 26031/0855 P0016 T00170017 TSNO
KBLU 200922Z AUTO 27011G23KT 1 1/4SM RA BR OVC005 02/02 A2987 RMK AO2 PK WND 26031/0855 VIS 3/4V2 P0012 T00170017 TSNO
KBLU 200852Z AUTO 27016G27KT 3/4SM +RA BR VV003 04/04 A2983 RMK AO2 PK WND 19043/0827 WSHFT 0824 PRESRR SLP069 P0033 60050 T00390039 55013 TSNO
KBLU 200844Z AUTO 24014G28KT 1/2SM RA FG VV003 04/04 A2982 RMK AO2 PK WND 19043/0827 WSHFT 0824 P0028 T00440044 TSNO
KBLU 200827Z AUTO 20024G43KT 1/2SM +RA FG VV003 06/06 A2979 RMK AO2 PK WND 19043/0827 P0017 T00610061 TSNO
KBLU 200820Z AUTO 20025G39KT 1SM RA BR VV003 06/06 A2978 RMK AO2 PK WND 19039/0819 P0013 T00610061 TSNO
KBLU 200752Z AUTO 19023G35KT 3/4SM +RA BR VV002 06/06 A2979 RMK AO2 PK WND 17035/0726 RAE0658B17 SLP049 P0011 T00610061 401280061 TSNO
KBLU 200724Z AUTO 16019G29KT 1/4SM -RA FG VV002 06/06 A2978 RMK AO2 PK WND 19031/0710 RAE0658B17 PRESFR P0000 T00610061 TSNO
KBLU 200652Z AUTO 18015G27KT 1/4SM -RA FG VV001 06/06 A2984 RMK AO2 PK WND 17029/0628 SLP063 P0006 T00610061 TSNO
KBLU 200552Z AUTO 17014G26KT 1/4SM -RA FG VV002 07/07 A2988 RMK AO2 PK WND 19026/0543 SLP077 P0009 60018 T00670067 10117 20067 58008 TSNO
KBLU 200547Z AUTO 18013G26KT 1/4SM -RA FG VV002 07/07 A2988 RMK AO2 PK WND 19026/0543 P0009 TSNO
KBLU 200538Z AUTO 18012KT 1/2SM RA FG VV002 07/07 A2989 RMK AO2 P0008 T00670067 TSNO
KBLU 200510Z AUTO 18013KT 1/4SM RA FG VV002 07/07 A2990 RMK AO2 P0003 T00670067 TSNO
KBLU 200452Z AUTO 18009G20KT 1/2SM -RA FG VV002 07/07 A2990 RMK AO2 SLP083 P0009 T00670067 TSNO
KBLU 200449Z AUTO 19013G20KT 1/2SM -RA FG VV002 07/07 A2990 RMK AO2 P0009 TSNO
KBLU 200352Z AUTO 18008G19KT 1/4SM -RA FG VV002 07/07 A2992 RMK AO2 RAB40 SLP093 P0000 T00670067 TSNO
KBLU 200252Z AUTO 18012G20KT 1/4SM FG VV002 07/07 A2992 RMK AO2 SLP095 T00720072 58002 TSNO
KBLU 200225Z AUTO 20013G20KT 1/4SM FG VV001 08/08 A2993 RMK AO2 T00780078 TSNO
KBLU 200202Z AUTO 19010KT 170V230 1/4SM FG VV002 08/08 A2993
KBLU 200152Z AUTO 18012KT 1/2SM FG OVC003 08/08 A2993 RMK AO2 SLP098 T00780078 TSNO
KBLU 200150Z AUTO 19010G18KT 3/4SM BR OVC003 08/08 A2992 RMK AO2 TSNO
KBLU 200147Z AUTO 18012G18KT 1 3/4SM BR OVC003 08/08 A2993 RMK AO2 TSNO
KBLU 200132Z AUTO 18009G18KT 9SM BKN003 OVC008 08/08 A2993 RMK AO2 CIG 002V006 T00830078 TSNO
KBLU 200115Z AUTO 18009KT 10SM FEW006 BKN009 OVC044 08/07 A2992 RMK AO2 CIG 007V013 T00830072 TSNO
KBLU 200052Z AUTO 18012KT 10SM FEW014 BKN025 OVC047 09/07 A2993 RMK AO2 SLP092 T00940067 TSNO
KBLU 192352Z AUTO 18010KT 10SM OVC026 12/06 A2995 RMK AO2 SLP095 T01170056 10128 20111 58021 TSNO
KBLU 192252Z AUTO 18011KT 10SM BKN027 BKN035 OVC042 12/05 A2998 RMK AO2 SLP106 T01170050 TSNO
KBLU 192152Z AUTO 17011KT 10SM BKN027 OVC033 12/04 A3000 RMK AO2 SLP110 T01220039 TSNO
KBLU 192052Z AUTO 18011KT 10SM OVC020 12/02 A3002 RMK AO2 SLP117 T01170022 58013 TSNO
KBLU 191952Z AUTO 18009KT 10SM OVC022 12/01 A3005 RMK AO2 SLP124 T01170011 TSNO
KBLU 191920Z AUTO 18010KT 10SM BKN027 OVC033 12/00 A3007 RMK AO2 T01170000 TSNO
KBLU 191852Z AUTO 18009KT 10SM OVC031 12/00 A3007 RMK AO2 SLP127 T01220000 TSNO
KBLU 191752Z AUTO 17009KT 10SM FEW033 OVC045 12/M03 A3007 RMK AO2 SLP129 T01221033 10128 20094 53000 TSNO
KBLU 191652Z AUTO 16008KT 10SM OVC042 13/M02 A3006 RMK AO2 SLP125 T01281022 TSNO
KBLU 191552Z AUTO 13004KT 10SM BKN033 11/M05 A3006 RMK AO2 SLP132 T01061050 TSNO
KBLU 191452Z AUTO 14006KT 10SM CLR 10/M06 A3006 RMK AO2 SLP132 T01001056 53000 TSNO